Last 24 Hour KALB Observations

Last 24 hours of surface weather observations from the Albany County Airport. Observations taken by the National Weather Service.


		
KALB 151651Z 24005KT 10SM FEW049 SCT250 15/01 A3015 RMK AO2 SLP209 T01500011=
KALB 151751Z 00000KT 10SM FEW050 FEW250 15/01 A3012 RMK AO2 SLP201 T01500006
 10156 20044 58019=
KALB 151851Z VRB03KT 10SM FEW050 FEW250 16/01 A3010 RMK AO2 SLP193 T01560011=
KALB 151951Z 00000KT 10SM FEW050 FEW250 17/01 A3008 RMK AO2 SLP187 T01670011=
KALB 152051Z 13006KT 10SM FEW250 16/02 A3007 RMK AO2 SLP182 T01560017 56019=
KALB 152151Z 15005KT 10SM FEW250 14/03 A3007 RMK AO2 SLP183 T01440028=
KALB 152251Z 13003KT 10SM FEW250 12/03 A3007 RMK AO2 SLP184 T01220028=
KALB 152351Z 00000KT 10SM FEW250 10/03 A3008 RMK AO2 SLP186 T01000033 10167
 20094 53003=
KALB 160051Z 00000KT 10SM FEW250 08/03 A3008 RMK AO2 SLP186 T00780028=
KALB 160151Z 00000KT 10SM FEW250 08/03 A3007 RMK AO2 SLP185 T00780033=
KALB 160251Z 00000KT 10SM FEW250 06/03 A3007 RMK AO2 SLP184 T00610028 58002=
KALB 160351Z 00000KT 10SM FEW250 06/02 A3005 RMK AO2 SLP178 T00560022=
KALB 160451Z 00000KT 10SM FEW250 06/03 A3005 RMK AO2 SLP176 T00560028 401670039=
KALB 160551Z 15003KT 10SM FEW250 04/03 A3005 RMK AO2 SLP177 T00440028 10100
 20044 56007=
KALB 160651Z 19004KT 10SM FEW250 07/02 A3003 RMK AO2 SLP171 T00670017=
KALB 160751Z 22004KT 10SM CLR 06/02 A3001 RMK AO2 SLP163 T00560017=
KALB 160851Z 18003KT 10SM CLR 06/02 A2999 RMK AO2 SLP156 T00560017 58019=
KALB 160951Z 00000KT 10SM CLR 05/02 A2998 RMK AO2 SLP153 T00500017=
KALB 161051Z 32003KT 10SM BCFG FEW130 FEW250 04/01 A2997 RMK AO2 SLP149 BCFG N
 T00390011=
KALB 161151Z 15007KT 130V190 10SM BCFG FEW130 SCT270 11/06 A2994 RMK AO2 SLP137
 BCFG N T01060056 10106 20033 58019=
KALB 161251Z 15013G20KT 10SM BKN035 BKN130 BKN270 12/06 A2991 RMK AO2 SLP129
 T01170056=
KALB 161351Z 17010KT 10SM BKN039 BKN120 BKN270 13/06 A2989 RMK AO2 SLP123
 T01280061=
KALB 161451Z 19007KT 10SM SCT033 BKN041 BKN120 BKN270 13/07 A2987 RMK AO2
 SLP117 SCT V BKN T01330067 56021=
KALB 161551Z 18006KT 10SM OVC050 14/07 A2984 RMK AO2 SLP106 OCNL BINOVC
 T01440072=
KALB 161651Z 15008KT 10SM BKN033 BKN046 17/08 A2980 RMK AO2 SLP091 T01670078=